Time;durP1;ratioP1;P1;durP2;ratioP2;P2;SDS_P1;SDS_P2;PMS_P1;PMS_P2;Temp;Humidity;BMP_temperature;BMP_pressure;BME280_temperature;BME280_humidity;BME280_pressure;Samples;Min_cycle;Max_cycle;Signal;HPM_P1;HPM_P2
2022/01/26 00:00:03;;;;;;;69.85;31.55;;;3.60;99.90;;;;;;4994194;28;20439;-93
2022/01/26 00:07:59;;;;;;;73.80;33.20;;;3.50;99.90;;;;;;4994347;28;20041;-91
2022/01/26 00:10:24;;;;;;;71.90;31.90;;;3.60;99.90;;;;;;4994471;28;20147;-92
2022/01/26 00:12:50;;;;;;;74.15;35.00;;;3.50;99.90;;;;;;4977397;28;20101;-92
2022/01/26 00:15:16;;;;;;;78.60;34.78;;;3.50;99.90;;;;;;4978177;28;20038;-92
2022/01/26 00:17:42;;;;;;;72.90;34.00;;;3.50;99.90;;;;;;4977693;28;20116;-90
2022/01/26 00:26:00;;;;;;;73.78;31.25;;;3.40;99.90;;;;;;4994267;28;20041;-93
2022/01/26 00:38:48;;;;;;;73.15;31.70;;;3.40;99.90;;;;;;5030447;28;20108;-91
2022/01/26 00:41:20;;;;;;;77.85;32.17;;;3.40;99.90;;;;;;5030229;28;20045;-93
2022/01/26 00:43:56;;;;;;;74.20;30.60;;;3.40;99.90;;;;;;5030758;28;20415;-93
2022/01/26 00:46:22;;;;;;;80.82;32.97;;;3.40;99.90;;;;;;5013781;28;20045;-91
2022/01/26 00:48:49;;;;;;;77.97;33.28;;;3.40;99.90;;;;;;5029759;28;20037;-93
2022/01/26 00:51:17;;;;;;;73.22;31.42;;;3.30;99.90;;;;;;5013227;28;20148;-90
2022/01/26 00:53:50;;;;;;;76.13;33.08;;;3.30;99.90;;;;;;5012921;28;20038;-92
2022/01/26 00:56:16;;;;;;;78.05;33.13;;;3.30;99.90;;;;;;5029508;28;20045;-92
2022/01/26 00:58:42;;;;;;;74.50;32.22;;;3.30;99.90;;;;;;5013310;28;20068;-90
2022/01/26 01:01:08;;;;;;;79.15;34.25;;;3.30;99.90;;;;;;5013502;28;20045;-91
2022/01/26 01:03:37;;;;;;;79.03;33.40;;;3.30;99.90;;;;;;5013605;28;20041;-90
2022/01/26 01:06:18;;;;;;;83.88;32.63;;;3.30;99.90;;;;;;5013584;28;20049;-90
2022/01/26 01:08:45;;;;;;;76.72;30.63;;;3.20;99.90;;;;;;5030553;28;20068;-90
2022/01/26 01:11:11;;;;;;;73.13;31.63;;;3.20;99.90;;;;;;5013879;28;20050;-90
2022/01/26 01:13:39;;;;;;;79.20;32.70;;;3.20;99.90;;;;;;5013335;28;20041;-90
2022/01/26 01:16:08;;;;;;;78.00;35.05;;;3.20;99.90;;;;;;5030037;28;20064;-90
2022/01/26 01:18:49;;;;;;;80.65;34.63;;;3.20;99.90;;;;;;5030119;28;20041;-89
2022/01/26 01:31:51;;;;;;;70.03;30.80;;;3.20;99.90;;;;;;5030987;28;20107;-90
2022/01/26 01:34:19;;;;;;;68.28;30.98;;;3.20;99.90;;;;;;5017207;28;20041;-90
2022/01/26 01:36:49;;;;;;;72.18;30.67;;;3.20;99.90;;;;;;5017342;28;20045;-89
2022/01/26 01:39:15;;;;;;;74.38;32.47;;;3.20;99.90;;;;;;5033703;28;20434;-89
2022/01/26 01:41:42;;;;;;;79.78;33.45;;;3.20;99.90;;;;;;5033741;28;20055;-90
2022/01/26 01:44:08;;;;;;;72.63;30.90;;;3.20;99.90;;;;;;5033866;28;20037;-91
2022/01/26 01:46:34;;;;;;;71.53;30.67;;;3.20;99.90;;;;;;5033954;28;20037;-90
2022/01/26 01:49:03;;;;;;;74.70;31.58;;;3.20;99.90;;;;;;5017305;28;20042;-90
2022/01/26 01:51:34;;;;;;;72.50;29.77;;;3.20;99.90;;;;;;5033734;28;20422;-90
2022/01/26 01:53:59;;;;;;;71.85;31.55;;;3.20;99.90;;;;;;5033826;28;20506;-89
2022/01/26 01:56:26;;;;;;;78.25;30.08;;;3.20;99.90;;;;;;5034016;28;20121;-90
2022/01/26 01:58:58;;;;;;;74.13;30.95;;;3.10;99.90;;;;;;5033244;28;20228;-90
2022/01/26 02:01:24;;;;;;;70.30;30.65;;;3.10;99.90;;;;;;5033210;28;20041;-89
2022/01/26 02:03:49;;;;;;;75.07;30.20;;;3.10;99.90;;;;;;5017544;28;20088;-91
2022/01/26 02:06:15;;;;;;;68.28;29.77;;;3.20;99.90;;;;;;5033532;28;20073;-90
2022/01/26 02:08:41;;;;;;;72.43;30.52;;;3.20;99.90;;;;;;5017059;28;20045;-90
2022/01/26 02:11:09;;;;;;;72.38;30.42;;;3.20;99.90;;;;;;5033449;28;20140;-90
2022/01/26 02:13:45;;;;;;;70.55;29.38;;;3.10;99.90;;;;;;5016271;28;20041;-91
2022/01/26 02:16:30;;;;;;;69.50;31.35;;;3.10;99.90;;;;;;5016885;28;20051;-90
2022/01/26 02:52:12;;;;;;;68.90;29.77;;;3.00;99.90;;;;;;5032826;28;20411;-91
2022/01/26 02:57:31;;;;;;;68.10;29.40;;;3.00;99.90;;;;;;5032858;28;20080;-90
2022/01/26 03:02:38;;;;;;;73.63;29.95;;;3.00;99.90;;;;;;5004585;28;20048;-90
2022/01/26 03:05:07;;;;;;;68.10;28.92;;;3.00;99.90;;;;;;5032100;28;20041;-90
2022/01/26 03:10:07;;;;;;;73.15;30.48;;;2.90;99.90;;;;;;5032475;28;20085;-90
2022/01/26 03:12:42;;;;;;;75.23;29.87;;;2.90;99.90;;;;;;5032095;28;20519;-90
2022/01/26 03:15:15;;;;;;;77.43;31.08;;;2.90;99.90;;;;;;5015847;28;20048;-89
2022/01/26 03:18:12;;;;;;;69.13;27.25;;;2.90;99.90;;;;;;5015816;28;20045;-90
2022/01/26 03:20:37;;;;;;;67.35;25.90;;;2.90;99.90;;;;;;5032042;28;20503;-89
2022/01/26 03:29:10;;;;;;;71.40;28.90;;;2.90;99.90;;;;;;5032066;28;20042;-89
2022/01/26 03:34:20;;;;;;;71.88;26.23;;;2.90;99.90;;;;;;5031792;28;20077;-91
2022/01/26 03:36:50;;;;;;;67.75;27.52;;;2.80;99.90;;;;;;5032014;28;20041;-90
2022/01/26 03:39:18;;;;;;;70.60;27.42;;;2.80;99.90;;;;;;5031214;28;20037;-89
2022/01/26 03:41:48;;;;;;;82.32;32.30;;;2.80;99.90;;;;;;5015167;28;20037;-90
2022/01/26 03:44:15;;;;;;;65.40;28.75;;;2.80;99.90;;;;;;5015304;28;20077;-90
2022/01/26 03:46:43;;;;;;;70.15;27.55;;;2.80;99.90;;;;;;5015217;28;20103;-90
2022/01/26 03:49:10;;;;;;;70.60;28.52;;;2.80;99.90;;;;;;5015309;28;20041;-90
2022/01/26 03:51:37;;;;;;;71.80;28.48;;;2.80;99.90;;;;;;5031150;28;20099;-90
2022/01/26 03:54:04;;;;;;;63.60;26.20;;;2.80;99.90;;;;;;5031170;28;20037;-90
2022/01/26 03:56:30;;;;;;;70.60;27.58;;;2.80;99.90;;;;;;5031473;28;20400;-90
2022/01/26 03:58:55;;;;;;;73.68;27.95;;;2.80;99.90;;;;;;5031607;28;20132;-89
2022/01/26 04:01:21;;;;;;;69.50;26.85;;;2.80;99.90;;;;;;5031144;28;20404;-90
2022/01/26 04:03:47;;;;;;;70.07;26.73;;;2.80;99.90;;;;;;5025360;28;20048;-90
2022/01/26 04:06:12;;;;;;;66.78;25.85;;;2.80;99.90;;;;;;5051180;28;20037;-90
2022/01/26 04:08:41;;;;;;;70.80;26.48;;;2.70;99.90;;;;;;5034422;28;20045;-89
2022/01/26 04:13:44;;;;;;;73.68;27.90;;;2.70;99.90;;;;;;5050698;28;20099;-90
2022/01/26 04:16:10;;;;;;;67.88;25.10;;;2.70;99.90;;;;;;5051111;28;20037;-89
2022/01/26 04:18:38;;;;;;;74.15;28.52;;;2.70;99.90;;;;;;5050979;28;20129;-89
2022/01/26 04:23:48;;;;;;;68.05;27.30;;;2.70;99.90;;;;;;5050825;28;20041;-89
2022/01/26 04:26:17;;;;;;;68.05;27.00;;;2.70;99.90;;;;;;5050829;28;20545;-89
2022/01/26 04:28:53;;;;;;;65.18;26.27;;;2.60;99.90;;;;;;5050682;28;20090;-89
2022/01/26 04:31:20;;;;;;;73.57;28.10;;;2.60;99.90;;;;;;5050422;28;20540;-90
2022/01/26 04:33:46;;;;;;;67.25;26.08;;;2.60;99.90;;;;;;5033804;28;20044;-89
2022/01/26 04:36:17;;;;;;;68.43;26.05;;;2.60;99.90;;;;;;5050874;28;20036;-91
2022/01/26 04:38:48;;;;;;;69.85;24.95;;;2.60;99.90;;;;;;5049988;28;20041;-90
2022/01/26 04:43:52;;;;;;;68.88;25.77;;;2.60;99.90;;;;;;5050445;28;20045;-90
2022/01/26 04:46:17;;;;;;;67.72;26.45;;;2.60;99.90;;;;;;5033960;28;20059;-90
2022/01/26 04:48:43;;;;;;;68.85;28.50;;;2.60;99.90;;;;;;5050825;28;20040;-89
2022/01/26 04:51:08;;;;;;;63.47;25.08;;;2.60;99.90;;;;;;5050640;28;20167;-88
2022/01/26 04:53:34;;;;;;;64.25;25.20;;;2.60;99.90;;;;;;5049922;28;20041;-90
2022/01/26 04:56:00;;;;;;;65.95;25.83;;;2.60;99.90;;;;;;5050834;28;20403;-91
2022/01/26 04:58:25;;;;;;;65.30;24.77;;;2.60;99.90;;;;;;5050316;28;20513;-89
2022/01/26 05:00:51;;;;;;;59.10;24.23;;;2.60;99.90;;;;;;5050749;28;20045;-90
2022/01/26 05:03:17;;;;;;;64.32;24.40;;;2.60;99.90;;;;;;5033717;28;20080;-89
2022/01/26 05:05:42;;;;;;;70.93;26.75;;;2.60;99.90;;;;;;5049655;28;20478;-90
2022/01/26 05:08:08;;;;;;;66.18;23.83;;;2.60;99.90;;;;;;5033739;28;20037;-90
2022/01/26 05:10:36;;;;;;;63.58;24.73;;;2.60;99.90;;;;;;5050222;28;20129;-90
2022/01/26 05:13:02;;;;;;;62.35;24.50;;;2.60;99.90;;;;;;5049625;28;20391;-90
2022/01/26 05:15:27;;;;;;;59.40;23.98;;;2.60;99.90;;;;;;5050160;28;20548;-89
2022/01/26 05:17:53;;;;;;;58.22;23.13;;;2.60;99.90;;;;;;5034065;28;20076;-91
2022/01/26 05:20:18;;;;;;;60.65;22.65;;;2.70;99.90;;;;;;5033614;28;20037;-89
2022/01/26 05:22:44;;;;;;;63.60;22.50;;;2.70;99.90;;;;;;5049981;28;20048;-89
2022/01/26 05:25:11;;;;;;;62.38;24.25;;;2.70;99.90;;;;;;5050037;28;20036;-89
2022/01/26 05:27:37;;;;;;;57.78;23.08;;;2.70;99.90;;;;;;5050098;28;20076;-90
2022/01/26 05:30:05;;;;;;;63.03;24.73;;;2.70;99.90;;;;;;5050179;28;20033;-90
2022/01/26 05:32:31;;;;;;;65.22;25.65;;;2.70;99.90;;;;;;5033554;28;20072;-90
2022/01/26 05:34:56;;;;;;;60.30;23.52;;;2.70;99.90;;;;;;5033677;28;20490;-90
2022/01/26 05:37:22;;;;;;;62.53;24.10;;;2.70;99.90;;;;;;5049945;28;20142;-90
2022/01/26 05:39:48;;;;;;;62.78;23.90;;;2.70;99.90;;;;;;5033588;28;20037;-89
2022/01/26 05:42:13;;;;;;;56.47;23.42;;;2.70;99.90;;;;;;5049752;28;20047;-90
2022/01/26 05:44:39;;;;;;;60.15;23.67;;;2.70;99.90;;;;;;5033168;28;20043;-90
2022/01/26 05:47:08;;;;;;;61.75;24.00;;;2.70;99.90;;;;;;5050131;28;20047;-90
2022/01/26 05:49:33;;;;;;;60.08;22.80;;;2.70;99.90;;;;;;5049807;28;20680;-90
2022/01/26 05:51:59;;;;;;;54.97;22.02;;;2.70;99.90;;;;;;5033049;28;20045;-90
2022/01/26 05:54:25;;;;;;;56.45;22.02;;;2.70;99.90;;;;;;5049753;28;20044;-88
2022/01/26 05:56:50;;;;;;;56.13;22.60;;;2.70;99.90;;;;;;5049482;28;20045;-89
2022/01/26 05:59:19;;;;;;;59.90;22.23;;;2.60;99.90;;;;;;5050023;28;20047;-90
2022/01/26 06:01:45;;;;;;;63.28;23.73;;;2.60;99.90;;;;;;5049435;28;20035;-90
2022/01/26 06:04:11;;;;;;;61.45;23.73;;;2.60;99.90;;;;;;5033517;28;20528;-91
2022/01/26 06:06:37;;;;;;;59.58;22.23;;;2.60;99.90;;;;;;5049733;28;20040;-90
2022/01/26 06:09:02;;;;;;;51.95;22.08;;;2.60;99.90;;;;;;5033281;28;20041;-90
2022/01/26 06:11:28;;;;;;;55.83;22.58;;;2.60;99.90;;;;;;5032740;28;20041;-90
2022/01/26 06:13:55;;;;;;;66.43;26.08;;;2.60;99.90;;;;;;5049684;28;20098;-89
2022/01/26 06:16:21;;;;;;;53.47;22.50;;;2.60;99.90;;;;;;5049691;28;20502;-91
2022/01/26 06:18:46;;;;;;;57.58;22.60;;;2.60;99.90;;;;;;5035905;28;20083;-90
2022/01/26 06:21:12;;;;;;;66.20;24.50;;;2.60;99.90;;;;;;5053288;28;20068;-90
2022/01/26 06:23:38;;;;;;;58.85;22.23;;;2.60;99.90;;;;;;5036177;28;20044;-91
2022/01/26 06:26:03;;;;;;;57.22;21.60;;;2.60;99.90;;;;;;5036600;28;20032;-91
2022/01/26 06:28:29;;;;;;;60.53;23.20;;;2.60;99.90;;;;;;5053301;28;20490;-90
2022/01/26 06:31:03;;;;;;;53.17;21.42;;;2.60;99.90;;;;;;5053327;28;20510;-89
2022/01/26 06:33:30;;;;;;;60.00;22.38;;;2.60;99.90;;;;;;5036054;28;20040;-89
2022/01/26 06:35:57;;;;;;;58.60;21.35;;;2.60;99.90;;;;;;5052455;28;20072;-90
2022/01/26 06:38:24;;;;;;;60.05;22.27;;;2.60;99.90;;;;;;5036307;28;20124;-89
2022/01/26 06:40:51;;;;;;;53.00;21.20;;;2.60;99.90;;;;;;5052699;28;20052;-90
2022/01/26 06:43:17;;;;;;;53.53;21.77;;;2.60;99.90;;;;;;5036183;28;20033;-90
2022/01/26 06:45:50;;;;;;;55.15;22.40;;;2.60;99.90;;;;;;5052759;28;20102;-89
2022/01/26 06:50:51;;;;;;;52.72;20.10;;;2.60;99.90;;;;;;5052873;28;20083;-91
2022/01/26 06:53:16;;;;;;;54.15;21.17;;;2.70;99.90;;;;;;5051862;28;20076;-90
2022/01/26 06:55:42;;;;;;;51.55;19.48;;;2.60;99.90;;;;;;5052866;28;20094;-91
2022/01/26 06:58:08;;;;;;;49.22;20.10;;;2.70;99.90;;;;;;5036283;28;20052;-89
2022/01/26 07:00:33;;;;;;;49.85;19.85;;;2.70;99.90;;;;;;5052057;28;20506;-90
2022/01/26 07:02:59;;;;;;;53.13;19.38;;;2.70;99.90;;;;;;5051687;28;20574;-90
2022/01/26 07:05:25;;;;;;;49.53;19.58;;;2.70;99.90;;;;;;5052146;28;20059;-90
2022/01/26 07:07:51;;;;;;;54.72;18.90;;;2.70;99.90;;;;;;5052318;28;20124;-90
2022/01/26 07:10:17;;;;;;;48.05;19.58;;;2.70;99.90;;;;;;5035491;28;20072;-89
2022/01/26 07:12:43;;;;;;;45.80;18.88;;;2.70;99.90;;;;;;5052051;28;20041;-90
2022/01/26 07:23:22;;;;;;;51.70;20.13;;;2.70;99.90;;;;;;5051702;28;20135;-90
2022/01/26 07:25:48;;;;;;;46.47;19.25;;;2.70;99.90;;;;;;5035220;28;20119;-89
2022/01/26 07:28:13;;;;;;;45.80;18.75;;;2.70;99.90;;;;;;5051946;28;20410;-90
2022/01/26 07:30:39;;;;;;;46.90;18.92;;;2.70;99.90;;;;;;5050464;28;20044;-89
2022/01/26 07:33:05;;;;;;;52.72;20.15;;;2.70;99.90;;;;;;5051182;28;20043;-91
2022/01/26 07:35:33;;;;;;;53.50;19.10;;;2.70;99.90;;;;;;5034887;28;20486;-89
2022/01/26 07:38:01;;;;;;;49.72;18.50;;;2.70;99.90;;;;;;5051761;28;20076;-89
2022/01/26 07:40:27;;;;;;;49.28;19.48;;;2.70;99.90;;;;;;5051597;28;20036;-90
2022/01/26 07:42:53;;;;;;;53.88;22.10;;;2.70;99.90;;;;;;5050927;28;20040;-89
2022/01/26 07:45:19;;;;;;;56.95;23.27;;;2.70;99.90;;;;;;5035046;28;20037;-90
2022/01/26 07:47:46;;;;;;;49.03;19.67;;;2.70;99.90;;;;;;5035037;28;20033;-90
2022/01/26 07:50:14;;;;;;;50.33;21.35;;;2.70;99.90;;;;;;5051557;28;20528;-90
2022/01/26 07:52:42;;;;;;;55.67;23.90;;;2.70;99.90;;;;;;5033781;28;20094;-90
2022/01/26 07:55:11;;;;;;;58.08;22.88;;;2.70;99.90;;;;;;5034761;28;20041;-90
2022/01/26 07:57:36;;;;;;;60.22;23.88;;;2.70;99.90;;;;;;5051700;28;20067;-90
2022/01/26 08:00:05;;;;;;;58.03;21.80;;;2.70;99.90;;;;;;5049017;28;20483;-89
2022/01/26 08:02:30;;;;;;;59.08;24.23;;;2.70;99.90;;;;;;5038497;28;20032;-90
2022/01/26 08:04:57;;;;;;;58.30;23.92;;;2.70;99.90;;;;;;5041255;28;20422;-90
2022/01/26 08:07:23;;;;;;;59.60;25.30;;;2.70;99.90;;;;;;5040648;28;20045;-89
2022/01/26 08:09:48;;;;;;;58.22;26.35;;;2.70;99.90;;;;;;5039530;28;20048;-90
2022/01/26 08:12:15;;;;;;;65.15;27.27;;;2.70;99.90;;;;;;5033385;28;20060;-89
2022/01/26 08:14:42;;;;;;;68.30;27.00;;;2.80;99.90;;;;;;5031332;28;20049;-89
2022/01/26 08:17:08;;;;;;;61.67;27.90;;;2.80;99.90;;;;;;5014776;28;20048;-89
2022/01/26 08:19:35;;;;;;;65.13;28.02;;;2.80;99.90;;;;;;5030086;28;20042;-89
2022/01/26 08:22:01;;;;;;;69.22;28.50;;;2.80;99.90;;;;;;5029980;28;20124;-88
2022/01/26 08:24:31;;;;;;;71.82;29.95;;;2.80;99.90;;;;;;5030708;28;20045;-89
2022/01/26 08:27:05;;;;;;;70.30;29.63;;;2.80;99.90;;;;;;5014041;28;20106;-89
2022/01/26 08:29:38;;;;;;;74.45;32.40;;;2.80;99.90;;;;;;5030896;28;20052;-90
2022/01/26 08:32:04;;;;;;;68.65;30.58;;;2.80;99.90;;;;;;5014158;28;20041;-90
2022/01/26 08:34:30;;;;;;;77.20;30.38;;;2.80;99.90;;;;;;5029327;28;20055;-90
2022/01/26 08:36:55;;;;;;;77.32;33.25;;;2.80;99.90;;;;;;5014108;28;20171;-89
2022/01/26 08:39:21;;;;;;;77.78;31.67;;;2.90;99.90;;;;;;5014234;28;20080;-90
2022/01/26 08:41:47;;;;;;;75.13;32.40;;;2.90;99.90;;;;;;5029819;28;20129;-89
2022/01/26 08:44:12;;;;;;;81.35;34.22;;;2.90;99.90;;;;;;5027335;28;20041;-90
2022/01/26 08:46:38;;;;;;;81.70;34.20;;;2.90;99.90;;;;;;5042985;28;20037;-90
2022/01/26 08:49:04;;;;;;;82.57;36.15;;;2.90;99.90;;;;;;5032381;28;20091;-90
2022/01/26 08:51:30;;;;;;;83.55;35.97;;;2.90;99.90;;;;;;5031211;28;20045;-91
2022/01/26 08:53:56;;;;;;;84.90;36.28;;;3.00;99.90;;;;;;5033324;28;20044;-89
2022/01/26 08:56:22;;;;;;;85.45;35.92;;;3.00;99.90;;;;;;5048409;28;20087;-90
2022/01/26 08:58:47;;;;;;;94.43;39.20;;;3.00;99.90;;;;;;5048138;28;20048;-91
2022/01/26 09:01:13;;;;;;;95.03;37.97;;;3.00;99.90;;;;;;5033323;28;20045;-90
2022/01/26 09:03:39;;;;;;;90.47;39.40;;;3.00;99.90;;;;;;5030943;28;20033;-89
2022/01/26 09:06:08;;;;;;;96.88;41.17;;;3.10;99.90;;;;;;5049992;28;20077;-91
2022/01/26 09:08:38;;;;;;;96.05;41.33;;;3.00;99.90;;;;;;5033192;28;20124;-88
2022/01/26 09:11:03;;;;;;;90.75;38.45;;;3.10;99.90;;;;;;5033241;28;20044;-91
2022/01/26 09:13:31;;;;;;;94.72;40.67;;;3.10;99.90;;;;;;5049585;28;20033;-89
2022/01/26 09:15:57;;;;;;;99.35;41.28;;;3.10;99.90;;;;;;5049510;28;20040;-90
2022/01/26 09:18:33;;;;;;;99.85;42.30;;;3.10;99.90;;;;;;5049809;28;20036;-90
2022/01/26 09:20:59;;;;;;;97.97;42.85;;;3.10;99.90;;;;;;5033065;28;20048;-89
2022/01/26 09:23:24;;;;;;;96.97;40.50;;;3.20;99.90;;;;;;5048809;28;20128;-88
2022/01/26 09:25:50;;;;;;;109.95;44.05;;;3.20;99.90;;;;;;5049339;28;20139;-91
2022/01/26 09:28:15;;;;;;;102.35;44.47;;;3.20;99.90;;;;;;5047349;28;20041;-90
2022/01/26 09:30:41;;;;;;;103.07;42.60;;;3.20;99.90;;;;;;5033370;28;20048;-89
2022/01/26 09:33:06;;;;;;;103.07;43.85;;;3.20;99.90;;;;;;5032527;28;20044;-89
2022/01/26 09:35:32;;;;;;;110.82;47.85;;;3.20;99.90;;;;;;5049525;28;20217;-90
2022/01/26 09:37:58;;;;;;;111.63;45.70;;;3.30;99.90;;;;;;5049304;28;20087;-89
2022/01/26 09:40:23;;;;;;;100.60;43.38;;;3.30;99.90;;;;;;5049232;28;20047;-89
2022/01/26 09:42:51;;;;;;;107.10;44.33;;;3.30;99.90;;;;;;5049556;28;20122;-89
2022/01/26 09:45:17;;;;;;;103.72;46.30;;;3.30;99.90;;;;;;5049781;28;20048;-89
2022/01/26 09:47:44;;;;;;;106.50;45.17;;;3.30;99.90;;;;;;5049917;28;20107;-90
2022/01/26 09:50:10;;;;;;;109.00;46.13;;;3.30;99.90;;;;;;5049435;28;20049;-89
2022/01/26 09:52:41;;;;;;;108.72;48.15;;;3.30;99.90;;;;;;5030117;28;20376;-90
2022/01/26 09:55:09;;;;;;;111.32;49.40;;;3.30;99.90;;;;;;5033538;28;20042;-91
2022/01/26 09:57:36;;;;;;;108.03;46.58;;;3.40;99.90;;;;;;5032207;28;20044;-89
2022/01/26 10:00:05;;;;;;;112.45;46.53;;;3.40;99.90;;;;;;5016374;28;20037;-90
2022/01/26 10:02:33;;;;;;;113.55;48.70;;;3.40;99.90;;;;;;5032501;28;20045;-89
2022/01/26 10:05:03;;;;;;;111.20;46.30;;;3.40;99.90;;;;;;5033765;28;20096;-90
2022/01/26 10:18:03;;;;;;;115.35;48.00;;;3.50;99.90;;;;;;5033139;28;20111;-90
2022/01/26 10:20:51;;;;;;;113.93;49.70;;;3.50;99.90;;;;;;5016478;28;20084;-90
2022/01/26 10:23:23;;;;;;;114.82;47.30;;;3.50;99.90;;;;;;5032917;28;20037;-91
2022/01/26 10:26:03;;;;;;;114.20;48.55;;;3.60;99.90;;;;;;5016746;28;20391;-89
2022/01/26 10:28:41;;;;;;;107.47;44.28;;;3.60;99.90;;;;;;5015654;28;20522;-90
2022/01/26 10:31:13;;;;;;;115.88;47.20;;;3.60;99.90;;;;;;5016518;28;20522;-90
2022/01/26 10:33:39;;;;;;;112.47;45.50;;;3.60;99.90;;;;;;5016174;28;20080;-91
2022/01/26 10:36:04;;;;;;;108.50;46.08;;;3.70;99.90;;;;;;5015710;28;20045;-90
2022/01/26 10:38:30;;;;;;;112.93;48.63;;;3.70;99.90;;;;;;5015808;28;20042;-91
2022/01/26 10:40:59;;;;;;;112.93;47.33;;;3.70;99.90;;;;;;5032728;28;20048;-91
2022/01/26 10:43:25;;;;;;;107.05;44.55;;;3.70;99.90;;;;;;5027379;28;20041;-90
2022/01/26 10:48:29;;;;;;;106.30;46.42;;;3.80;99.90;;;;;;5030802;28;20041;-90
2022/01/26 10:53:45;;;;;;;111.07;45.55;;;3.90;99.90;;;;;;5031426;28;20041;-90
2022/01/26 10:56:11;;;;;;;100.53;43.90;;;3.90;99.90;;;;;;5032109;28;20048;-90
2022/01/26 10:58:36;;;;;;;99.22;43.83;;;3.90;99.90;;;;;;5031805;28;20057;-89
2022/01/26 11:01:03;;;;;;;101.15;43.95;;;3.90;99.90;;;;;;5015499;28;20116;-89
2022/01/26 11:03:29;;;;;;;86.55;40.15;;;4.00;99.90;;;;;;5041323;28;20517;-89
2022/01/26 11:05:54;;;;;;;91.47;41.03;;;4.00;99.90;;;;;;5040045;28;20029;-89
2022/01/26 11:08:22;;;;;;;98.00;40.15;;;4.00;99.90;;;;;;5039437;28;20053;-90
2022/01/26 11:10:48;;;;;;;88.10;40.42;;;4.00;99.90;;;;;;5025170;28;20029;-89
2022/01/26 11:13:26;;;;;;;101.00;43.30;;;4.10;99.90;;;;;;5042787;28;20087;-90
2022/01/26 11:15:52;;;;;;;100.55;43.10;;;4.10;99.90;;;;;;5051906;28;20040;-88
2022/01/26 11:18:27;;;;;;;84.40;38.42;;;4.10;99.90;;;;;;5031385;28;20039;-89
2022/01/26 11:20:54;;;;;;;90.28;40.40;;;4.10;99.90;;;;;;5022006;28;20037;-89
2022/01/26 11:23:33;;;;;;;90.90;39.00;;;4.10;99.90;;;;;;5039165;28;20495;-89
2022/01/26 11:25:58;;;;;;;90.55;40.65;;;4.10;99.90;;;;;;5038673;28;20033;-89
2022/01/26 11:28:26;;;;;;;89.28;39.47;;;4.20;99.90;;;;;;5041609;28;20033;-92
2022/01/26 11:30:56;;;;;;;86.82;38.25;;;4.10;99.90;;;;;;5040663;28;20127;-89
2022/01/26 11:33:25;;;;;;;89.47;40.22;;;4.20;99.90;;;;;;5038979;28;20041;-91
2022/01/26 11:35:53;;;;;;;81.20;36.38;;;4.20;99.90;;;;;;5040485;28;20110;-91
2022/01/26 11:46:59;;;;;;;84.35;39.25;;;4.20;99.90;;;;;;5031320;28;20503;-91
2022/01/26 11:49:33;;;;;;;82.25;37.38;;;4.20;99.90;;;;;;5014579;28;20053;-90
2022/01/26 11:51:58;;;;;;;79.93;38.22;;;4.20;99.90;;;;;;5030776;28;20042;-91
2022/01/26 11:54:28;;;;;;;79.53;37.75;;;4.20;99.90;;;;;;5030629;28;20041;-89
2022/01/26 11:57:00;;;;;;;81.55;37.95;;;4.30;99.90;;;;;;5030883;28;20041;-90
2022/01/26 11:59:28;;;;;;;72.97;35.03;;;4.30;99.90;;;;;;5031064;28;20045;-90
2022/01/26 12:01:59;;;;;;;80.22;38.08;;;4.30;99.90;;;;;;5031581;28;20037;-91
2022/01/26 12:04:26;;;;;;;75.63;36.83;;;4.30;99.90;;;;;;5014196;28;20064;-90
2022/01/26 12:06:59;;;;;;;72.90;34.50;;;4.30;99.90;;;;;;5031046;28;20463;-90
2022/01/26 12:09:25;;;;;;;;;;;4.30;99.90;;;;;;5031120;28;20045;-91
2022/01/26 12:11:55;;;;;;;66.88;30.98;;;4.40;99.90;;;;;;5030241;28;19944;-91
2022/01/26 12:14:22;;;;;;;72.72;33.33;;;4.40;99.90;;;;;;5030933;28;20372;-90
2022/01/26 12:16:52;;;;;;;73.03;33.67;;;4.40;99.90;;;;;;5013758;28;20124;-90
2022/01/26 12:19:33;;;;;;;81.80;37.60;;;4.40;99.90;;;;;;5030430;28;20581;-90
2022/01/26 12:36:48;;;;;;;66.50;31.10;;;4.40;99.90;;;;;;5030557;28;20057;-90
2022/01/26 12:39:15;;;;;;;70.45;31.73;;;4.40;99.90;;;;;;5035409;28;20064;-91
2022/01/26 12:41:48;;;;;;;70.78;33.92;;;4.40;99.90;;;;;;5038785;28;20394;-91
2022/01/26 12:44:13;;;;;;;;;;;4.40;99.90;;;;;;5038707;28;20160;-90
2022/01/26 12:46:40;;;;;;;64.78;31.02;;;4.50;99.90;;;;;;5048462;28;20015;-91
2022/01/26 12:49:07;;;;;;;65.28;29.77;;;4.50;99.90;;;;;;5033329;28;20047;-90
2022/01/26 12:51:53;;;;;;;57.97;28.10;;;4.50;99.90;;;;;;5032962;28;20044;-91
2022/01/26 12:54:19;;;;;;;67.30;27.65;;;4.50;99.90;;;;;;5047909;28;20623;-92
2022/01/26 12:56:44;;;;;;;67.43;32.58;;;4.50;99.90;;;;;;5050285;28;20122;-92
2022/01/26 12:59:17;;;;;;;66.05;31.15;;;4.50;99.90;;;;;;5049757;28;20112;-92
2022/01/26 13:01:46;;;;;;;66.35;31.40;;;4.50;99.90;;;;;;5033197;28;20048;-92
2022/01/26 13:04:13;;;;;;;63.30;30.27;;;4.60;99.90;;;;;;5033215;28;20032;-92
2022/01/26 13:06:41;;;;;;;67.18;31.17;;;4.60;99.90;;;;;;5050279;28;20029;-91
2022/01/26 13:09:17;;;;;;;58.53;28.77;;;4.60;99.90;;;;;;5033472;28;20072;-90
2022/01/26 13:11:46;;;;;;;66.03;28.58;;;4.60;99.90;;;;;;5033273;28;20076;-91
2022/01/26 13:14:46;;;;;;;64.20;29.85;;;4.60;99.90;;;;;;5033435;28;20040;-90
2022/01/26 13:25:30;;;;;;;65.25;30.48;;;4.60;99.90;;;;;;5012636;28;20450;-90
2022/01/26 13:28:17;;;;;;;69.68;32.13;;;4.50;99.90;;;;;;5004982;28;20133;-91
2022/01/26 13:39:08;;;;;;;73.00;34.63;;;4.60;99.90;;;;;;4996278;28;20050;-91
2022/01/26 13:42:11;;;;;;;68.20;33.08;;;4.50;99.90;;;;;;4996277;28;20133;-90
2022/01/26 13:49:58;;;;;;;76.28;34.47;;;4.60;99.90;;;;;;4996539;28;20050;-91
2022/01/26 13:52:39;;;;;;;71.53;32.95;;;4.60;99.90;;;;;;4980631;28;20046;-90
2022/01/26 13:58:06;;;;;;;74.53;32.53;;;4.50;99.90;;;;;;5033209;28;20049;-90
2022/01/26 14:00:39;;;;;;;75.13;32.00;;;4.60;99.90;;;;;;5033535;28;20104;-90
2022/01/26 14:03:06;;;;;;;;;;;4.60;99.90;;;;;;5033252;28;20493;-92
2022/01/26 14:05:32;;;;;;;63.47;29.33;;;4.60;99.90;;;;;;5017919;28;19917;-92
2022/01/26 14:07:58;;;;;;;65.55;29.63;;;4.60;99.90;;;;;;5033420;28;20029;-91
2022/01/26 14:10:24;;;;;;;63.53;30.85;;;4.60;99.90;;;;;;5016970;28;20099;-91
2022/01/26 14:12:50;;;;;;;67.93;32.42;;;4.60;99.90;;;;;;5016911;28;20037;-91
2022/01/26 14:15:23;;;;;;;72.22;33.33;;;4.60;99.90;;;;;;5016715;28;20041;-91
2022/01/26 14:20:40;;;;;;;72.75;32.70;;;4.60;99.90;;;;;;5032657;28;20201;-91
2022/01/26 14:25:50;;;;;;;65.88;31.80;;;4.60;99.90;;;;;;5033214;28;20045;-91
2022/01/26 14:28:18;;;;;;;74.80;34.58;;;4.60;99.90;;;;;;5032120;28;20052;-91
2022/01/26 14:54:47;;;;;;;61.28;29.02;;;4.70;99.90;;;;;;5032434;28;20052;-90
2022/01/26 15:33:21;;;;;;;55.47;27.98;;;4.80;99.90;;;;;;5051105;28;20348;-90
2022/01/26 16:05:21;;;;;;;54.58;25.00;;;5.00;99.90;;;;;;5050997;28;20040;-90
2022/01/26 16:07:53;;;;;;;55.47;27.48;;;5.00;99.90;;;;;;5051148;28;20072;-91
2022/01/26 17:02:31;;;;;;;59.42;29.20;;;5.20;99.90;;;;;;5040105;28;20041;-92
2022/01/26 17:24:19;;;;;;;56.35;27.65;;;5.10;99.90;;;;;;5029928;28;20041;-91
2022/01/26 17:24:22;;;;;;;60.53;29.52;;;5.00;99.90;;;;;;5029675;28;20046;-91
2022/01/26 18:13:05;;;;;;;55.15;28.40;;;5.10;99.90;;;;;;5045993;28;20051;-91
2022/01/26 18:16:01;;;;;;;58.55;31.38;;;5.10;99.90;;;;;;5033335;28;20041;-90
2022/01/26 18:32:08;;;;;;;54.25;28.33;;;5.20;99.90;;;;;;5052804;28;20049;-91
2022/01/26 18:51:03;;;;;;;49.03;26.13;;;5.30;99.90;;;;;;5043674;28;20049;-92
2022/01/26 18:53:28;;;;;;;56.00;29.85;;;5.30;99.90;;;;;;5040997;28;20092;-91
2022/01/26 18:55:54;;;;;;;56.10;29.90;;;5.30;99.90;;;;;;5025569;28;20456;-91
2022/01/26 18:58:20;;;;;;;58.13;30.73;;;5.30;99.90;;;;;;5026456;28;20072;-91
2022/01/26 19:00:45;;;;;;;56.63;30.10;;;5.30;99.90;;;;;;5023911;28;20087;-90
2022/01/26 19:03:12;;;;;;;54.53;31.45;;;5.30;99.90;;;;;;5029170;28;20125;-92
2022/01/26 19:05:38;;;;;;;64.50;29.42;;;5.30;99.90;;;;;;5050216;28;20513;-90
2022/01/26 19:08:03;;;;;;;55.95;29.30;;;5.30;99.90;;;;;;5026105;28;20030;-93
2022/01/26 19:10:29;;;;;;;55.22;30.38;;;5.30;99.90;;;;;;5024645;28;20083;-92
2022/01/26 19:12:55;;;;;;;56.22;30.63;;;5.30;99.90;;;;;;5045524;28;20033;-91
2022/01/26 19:15:25;;;;;;;56.75;31.00;;;5.30;99.90;;;;;;5048106;28;20053;-92
2022/01/26 19:18:05;;;;;;;53.85;28.75;;;5.30;99.90;;;;;;5043503;28;20041;-91
2022/01/26 19:20:48;;;;;;;59.90;32.55;;;5.30;99.90;;;;;;5041694;28;20046;-91
2022/01/26 19:23:31;;;;;;;52.40;27.93;;;5.30;99.90;;;;;;5027599;28;20040;-92
2022/01/26 19:26:11;;;;;;;53.38;28.98;;;5.30;99.90;;;;;;5043145;28;20047;-92